Time;durP1;ratioP1;P1;durP2;ratioP2;P2;SDS_P1;SDS_P2;PMS_P1;PMS_P2;Temp;Humidity;BMP_temperature;BMP_pressure;BME280_temperature;BME280_humidity;BME280_pressure;Samples;Min_cycle;Max_cycle;Signal;HPM_P1;HPM_P2
2021/01/07 00:00:01;;;;;;;5.07;4.60;;;8.10;61.30;;;;;;5052775;28;20690;-40
2021/01/07 00:02:27;;;;;;;5.70;5.10;;;8.20;61.10;;;;;;5052287;28;20283;-40
2021/01/07 00:04:53;;;;;;;5.57;5.00;;;8.30;60.90;;;;;;5052104;28;20517;-41
2021/01/07 00:07:18;;;;;;;4.67;4.27;;;8.30;61.20;;;;;;5050509;28;20189;-40
2021/01/07 00:09:44;;;;;;;6.70;5.50;;;8.10;61.30;;;;;;5052479;28;20189;-40
2021/01/07 00:12:09;;;;;;;5.77;5.23;;;8.10;61.40;;;;;;5052205;28;20254;-41
2021/01/07 00:14:35;;;;;;;6.00;5.40;;;8.10;61.50;;;;;;5052910;28;20227;-41
2021/01/07 00:17:00;;;;;;;6.03;4.80;;;8.20;61.30;;;;;;5051801;28;20235;-41
2021/01/07 00:19:26;;;;;;;5.80;5.10;;;8.30;61.00;;;;;;5052808;28;20282;-41
2021/01/07 00:21:51;;;;;;;6.43;5.50;;;8.20;61.10;;;;;;5052835;28;20273;-40
2021/01/07 00:24:17;;;;;;;5.73;5.13;;;8.10;61.10;;;;;;5052048;28;20197;-40
2021/01/07 00:26:43;;;;;;;6.80;6.07;;;8.20;60.90;;;;;;5051694;28;20254;-41
2021/01/07 00:29:08;;;;;;;6.30;5.70;;;8.40;60.60;;;;;;5051592;28;20543;-41
2021/01/07 00:31:34;;;;;;;6.10;5.50;;;8.40;60.40;;;;;;5057709;28;20528;-40
2021/01/07 00:34:00;;;;;;;6.20;5.60;;;8.40;60.40;;;;;;5050657;28;20224;-40
2021/01/07 00:36:26;;;;;;;6.20;5.60;;;8.40;60.50;;;;;;5052293;28;20220;-41
2021/01/07 00:38:51;;;;;;;7.67;5.63;;;8.50;60.40;;;;;;5051228;28;20484;-41
2021/01/07 00:41:20;;;;;;;7.70;5.80;;;8.40;60.20;;;;;;5052188;28;20307;-41
2021/01/07 00:43:47;;;;;;;5.97;5.30;;;8.50;60.40;;;;;;5046015;28;20200;-41
2021/01/07 00:46:13;;;;;;;7.67;5.90;;;8.50;60.20;;;;;;5051513;28;20435;-41
2021/01/07 00:48:39;;;;;;;6.87;5.90;;;8.50;60.10;;;;;;5051581;28;20773;-41
2021/01/07 00:51:06;;;;;;;6.90;6.10;;;8.50;60.10;;;;;;5051947;28;20254;-41
2021/01/07 00:53:31;;;;;;;6.67;5.97;;;8.50;59.90;;;;;;5051677;28;20250;-40
2021/01/07 00:55:57;;;;;;;7.20;6.50;;;8.50;59.90;;;;;;5050236;28;20606;-41
2021/01/07 00:58:22;;;;;;;6.77;6.00;;;8.50;59.90;;;;;;5051393;28;20613;-41
2021/01/07 01:00:48;;;;;;;5.83;5.23;;;8.50;59.90;;;;;;5051661;28;20636;-41
2021/01/07 01:03:14;;;;;;;7.00;6.13;;;8.60;59.90;;;;;;5050063;28;20905;-41
2021/01/07 01:05:39;;;;;;;6.67;5.97;;;8.60;59.80;;;;;;5050925;28;20550;-41
2021/01/07 01:08:06;;;;;;;6.43;5.67;;;8.60;59.70;;;;;;5051483;28;20200;-40
2021/01/07 01:10:32;;;;;;;6.70;6.00;;;8.60;59.70;;;;;;5042431;28;20196;-41
2021/01/07 01:12:57;;;;;;;9.83;6.27;;;8.60;59.70;;;;;;5051206;28;20431;-41
2021/01/07 01:15:23;;;;;;;6.50;5.50;;;8.50;59.50;;;;;;5051495;28;20197;-41
2021/01/07 01:17:49;;;;;;;6.40;5.77;;;8.50;59.60;;;;;;5050670;28;20220;-41
2021/01/07 01:20:14;;;;;;;6.50;5.40;;;8.50;59.80;;;;;;5051336;28;20624;-41
2021/01/07 01:22:41;;;;;;;6.40;5.80;;;8.50;59.90;;;;;;5044217;28;20251;-41
2021/01/07 01:25:09;;;;;;;7.23;6.50;;;8.50;60.00;;;;;;5051273;28;20298;-41
2021/01/07 01:27:40;;;;;;;7.67;6.33;;;8.60;59.90;;;;;;5050925;28;20488;-41
2021/01/07 01:30:08;;;;;;;7.17;6.30;;;8.60;60.00;;;;;;5050015;28;20439;-41
2021/01/07 01:32:35;;;;;;;9.07;6.70;;;8.60;60.20;;;;;;5050903;28;20477;-41
2021/01/07 01:35:00;;;;;;;7.23;6.60;;;8.50;60.20;;;;;;5051045;28;20766;-41
2021/01/07 01:37:26;;;;;;;7.20;6.17;;;8.60;60.10;;;;;;5050105;28;20486;-41
2021/01/07 01:39:52;;;;;;;7.20;6.10;;;8.60;60.70;;;;;;5051726;28;20224;-41
2021/01/07 01:42:25;;;;;;;6.90;6.10;;;8.60;59.90;;;;;;5048374;28;20579;-41
2021/01/07 01:44:54;;;;;;;7.53;6.50;;;8.60;59.80;;;;;;5051713;28;20224;-41
2021/01/07 01:47:21;;;;;;;8.07;6.50;;;8.60;59.80;;;;;;5051040;28;20443;-41
2021/01/07 01:49:51;;;;;;;8.70;7.20;;;8.50;59.80;;;;;;5051044;28;20466;-41
2021/01/07 01:52:18;;;;;;;8.40;6.63;;;8.50;59.90;;;;;;5050604;28;20861;-40
2021/01/07 01:54:47;;;;;;;7.50;6.47;;;8.50;59.90;;;;;;5030720;28;20436;-41
2021/01/07 01:57:13;;;;;;;8.43;5.90;;;8.50;60.30;;;;;;5045482;28;21178;-40
2021/01/07 01:59:40;;;;;;;9.03;7.27;;;8.60;59.60;;;;;;5050111;28;20442;-41
2021/01/07 02:02:07;;;;;;;9.20;6.90;;;8.50;59.70;;;;;;5050437;28;20787;-41
2021/01/07 02:04:33;;;;;;;8.17;6.47;;;8.50;59.70;;;;;;5049834;28;20427;-41
2021/01/07 02:06:59;;;;;;;7.97;6.80;;;8.50;59.80;;;;;;5049759;28;21086;-41
2021/01/07 02:09:25;;;;;;;6.87;6.00;;;8.50;59.80;;;;;;5050642;28;20548;-40
2021/01/07 02:11:51;;;;;;;9.00;6.70;;;8.50;60.10;;;;;;5050559;28;20438;-41
2021/01/07 02:14:17;;;;;;;7.73;6.93;;;8.50;60.00;;;;;;5049800;28;20506;-41
2021/01/07 02:16:43;;;;;;;8.13;7.27;;;8.50;60.10;;;;;;5051080;28;20578;-41
2021/01/07 02:19:08;;;;;;;7.00;6.10;;;8.50;60.20;;;;;;5050173;28;20184;-41
2021/01/07 02:21:37;;;;;;;9.40;6.67;;;8.50;59.90;;;;;;5050375;28;20196;-41
2021/01/07 02:24:03;;;;;;;10.20;7.80;;;8.50;59.80;;;;;;5051394;28;20269;-41
2021/01/07 02:26:29;;;;;;;8.77;6.93;;;8.50;59.80;;;;;;5048489;28;20855;-41
2021/01/07 02:28:54;;;;;;;9.10;7.10;;;8.50;59.60;;;;;;5049759;28;20512;-41
2021/01/07 02:31:20;;;;;;;10.30;8.03;;;8.50;59.50;;;;;;5050614;28;20283;-41
2021/01/07 02:33:46;;;;;;;8.37;7.10;;;8.50;59.40;;;;;;5049600;28;20632;-40
2021/01/07 02:36:12;;;;;;;9.30;7.57;;;8.50;59.50;;;;;;5050272;28;20274;-41
2021/01/07 02:38:38;;;;;;;8.63;6.93;;;8.50;59.60;;;;;;5047833;28;21083;-41
2021/01/07 02:41:04;;;;;;;7.80;6.70;;;8.50;59.70;;;;;;5050083;28;20225;-41
2021/01/07 02:43:30;;;;;;;7.63;6.43;;;8.50;59.70;;;;;;5048714;28;20640;-41
2021/01/07 02:45:56;;;;;;;7.80;7.00;;;8.50;59.80;;;;;;5049473;28;20455;-41
2021/01/07 02:48:22;;;;;;;8.73;6.97;;;8.50;60.00;;;;;;5049764;28;20474;-41
2021/01/07 02:50:47;;;;;;;8.33;6.73;;;8.50;60.00;;;;;;5050386;28;20500;-41
2021/01/07 02:53:13;;;;;;;8.93;6.30;;;8.60;60.10;;;;;;5047824;28;20238;-41
2021/01/07 02:55:39;;;;;;;8.43;6.90;;;8.60;60.00;;;;;;5049216;28;20654;-41
2021/01/07 02:58:05;;;;;;;8.10;6.60;;;8.60;59.80;;;;;;5049975;28;20224;-41
2021/01/07 03:00:30;;;;;;;8.53;7.20;;;8.60;59.80;;;;;;5049966;28;20560;-41
2021/01/07 03:02:56;;;;;;;7.93;7.13;;;8.60;59.70;;;;;;5048971;28;20704;-41
2021/01/07 03:05:22;;;;;;;8.57;7.67;;;8.60;59.70;;;;;;5048695;28;20644;-40
2021/01/07 03:07:47;;;;;;;8.47;7.00;;;8.60;59.70;;;;;;5049286;28;20192;-41
2021/01/07 03:10:13;;;;;;;8.10;6.97;;;8.60;59.60;;;;;;5049356;28;20188;-41
2021/01/07 03:12:39;;;;;;;9.07;7.13;;;8.60;59.50;;;;;;5049579;28;20242;-42
2021/01/07 03:15:06;;;;;;;8.73;6.70;;;8.60;59.40;;;;;;5049116;28;20446;-41
2021/01/07 03:17:32;;;;;;;7.60;6.70;;;8.60;60.00;;;;;;5049185;28;20221;-41
2021/01/07 03:19:58;;;;;;;7.33;6.63;;;8.40;59.40;;;;;;5053658;28;20431;-41
2021/01/07 03:22:24;;;;;;;8.87;7.07;;;8.40;59.20;;;;;;5051205;28;20204;-41
2021/01/07 03:24:49;;;;;;;8.00;7.20;;;8.50;59.30;;;;;;5053132;28;20451;-41
2021/01/07 03:27:15;;;;;;;8.33;6.77;;;8.50;59.20;;;;;;5053414;28;20197;-41
2021/01/07 03:29:41;;;;;;;7.80;6.97;;;8.50;59.20;;;;;;5053216;28;20330;-41
2021/01/07 03:32:06;;;;;;;8.60;6.80;;;8.50;59.30;;;;;;5053264;28;20201;-41
2021/01/07 03:34:32;;;;;;;7.60;6.80;;;8.50;59.50;;;;;;5053137;28;20644;-41
2021/01/07 03:36:57;;;;;;;8.07;6.70;;;8.50;59.30;;;;;;5052350;28;20224;-40
2021/01/07 03:39:23;;;;;;;8.93;7.77;;;8.50;59.30;;;;;;5053061;28;20196;-41
2021/01/07 03:41:49;;;;;;;8.50;7.23;;;8.40;59.10;;;;;;5054054;28;20331;-41
2021/01/07 03:44:14;;;;;;;8.70;7.40;;;8.10;59.20;;;;;;5052488;28;20211;-41
2021/01/07 03:46:40;;;;;;;8.30;7.40;;;8.10;59.80;;;;;;5053298;28;20184;-41
2021/01/07 03:49:06;;;;;;;8.13;6.57;;;8.10;59.50;;;;;;5050109;28;20288;-41
2021/01/07 03:51:32;;;;;;;7.60;6.77;;;8.20;59.50;;;;;;5053742;28;20263;-41
2021/01/07 03:53:58;;;;;;;6.30;5.70;;;8.30;59.40;;;;;;5053000;28;20573;-41
2021/01/07 03:56:23;;;;;;;6.20;5.60;;;8.30;59.50;;;;;;5053771;28;20950;-41
2021/01/07 03:58:49;;;;;;;6.07;5.50;;;8.30;59.30;;;;;;5052333;28;20192;-40
2021/01/07 04:01:15;;;;;;;6.67;6.07;;;8.40;59.20;;;;;;5052728;28;20227;-41
2021/01/07 04:03:41;;;;;;;7.20;6.13;;;8.40;59.20;;;;;;5052701;28;20434;-41
2021/01/07 04:06:06;;;;;;;6.90;6.30;;;8.40;59.00;;;;;;5053056;28;20945;-41
2021/01/07 04:08:32;;;;;;;5.90;5.30;;;8.20;58.90;;;;;;5052836;28;20640;-41
2021/01/07 04:10:58;;;;;;;7.07;6.07;;;8.20;59.30;;;;;;5046479;28;20636;-40
2021/01/07 04:13:24;;;;;;;6.83;5.83;;;8.30;59.30;;;;;;5052714;28;20496;-40
2021/01/07 04:15:50;;;;;;;5.83;5.23;;;8.30;59.30;;;;;;5052753;28;20672;-41
2021/01/07 04:18:16;;;;;;;6.57;4.97;;;8.30;59.20;;;;;;5051021;28;20205;-41
2021/01/07 04:20:41;;;;;;;6.07;5.27;;;8.10;58.70;;;;;;5052327;28;20435;-41
2021/01/07 04:23:07;;;;;;;6.20;4.40;;;8.00;59.10;;;;;;5052337;28;20181;-41
2021/01/07 04:25:33;;;;;;;4.13;3.80;;;7.80;59.20;;;;;;5052248;28;20617;-40
2021/01/07 04:27:58;;;;;;;4.70;4.00;;;7.90;59.50;;;;;;5051723;28;20215;-41
2021/01/07 04:30:24;;;;;;;4.93;4.43;;;7.90;59.20;;;;;;5052342;28;20220;-40
2021/01/07 04:32:49;;;;;;;4.53;3.90;;;8.00;59.00;;;;;;5051735;28;20242;-41
2021/01/07 04:35:15;;;;;;;4.70;4.30;;;8.10;59.00;;;;;;5052539;28;20662;-41
2021/01/07 04:37:41;;;;;;;4.97;4.47;;;8.10;59.00;;;;;;5051787;28;20224;-40
2021/01/07 04:40:07;;;;;;;5.57;4.43;;;8.10;58.70;;;;;;5051686;28;20204;-41
2021/01/07 04:42:33;;;;;;;5.27;4.77;;;8.20;58.60;;;;;;5051490;28;20435;-40
2021/01/07 04:45:00;;;;;;;5.50;4.30;;;8.20;58.60;;;;;;5050382;28;20430;-40
2021/01/07 04:47:26;;;;;;;7.03;4.00;;;8.20;58.70;;;;;;5051796;28;20192;-41
2021/01/07 04:49:52;;;;;;;4.40;4.00;;;8.00;58.30;;;;;;5051662;28;20435;-41
2021/01/07 04:52:18;;;;;;;4.70;3.70;;;8.10;58.30;;;;;;5050553;28;20215;-41
2021/01/07 04:54:44;;;;;;;5.10;3.83;;;8.10;58.40;;;;;;5052046;28;20534;-41
2021/01/07 04:57:09;;;;;;;4.20;3.80;;;8.00;58.20;;;;;;5051399;28;20232;-40
2021/01/07 04:59:35;;;;;;;4.10;3.60;;;8.00;58.40;;;;;;5051621;28;20423;-40
2021/01/07 05:02:02;;;;;;;4.40;4.00;;;8.10;58.60;;;;;;5051036;28;20185;-41
2021/01/07 05:04:28;;;;;;;4.17;3.77;;;8.10;58.80;;;;;;5050890;28;20189;-41
2021/01/07 05:06:54;;;;;;;4.93;3.93;;;8.10;58.70;;;;;;5051558;28;20997;-41
2021/01/07 05:09:21;;;;;;;4.20;3.80;;;8.20;58.70;;;;;;5052233;28;20192;-41
2021/01/07 05:11:47;;;;;;;4.23;3.83;;;8.30;58.50;;;;;;5050974;28;20225;-40
2021/01/07 05:14:12;;;;;;;4.47;4.07;;;8.30;58.10;;;;;;5050532;28;21331;-40
2021/01/07 05:16:38;;;;;;;4.60;4.20;;;8.30;58.10;;;;;;5050895;28;20274;-41
2021/01/07 05:19:05;;;;;;;4.40;4.00;;;8.30;58.10;;;;;;5051137;28;20188;-40
2021/01/07 05:21:31;;;;;;;4.80;4.30;;;8.30;57.90;;;;;;5052203;28;20189;-41
2021/01/07 05:23:58;;;;;;;4.97;4.13;;;8.40;58.00;;;;;;5050339;28;20480;-41
2021/01/07 05:26:25;;;;;;;4.67;4.17;;;8.40;58.10;;;;;;5051503;28;20430;-41
2021/01/07 05:28:55;;;;;;;4.77;4.30;;;8.30;58.20;;;;;;5051634;28;20891;-41
2021/01/07 05:31:23;;;;;;;5.27;4.77;;;8.40;58.20;;;;;;5050557;28;20435;-41
2021/01/07 05:33:49;;;;;;;4.57;4.17;;;8.40;58.20;;;;;;5050289;28;20431;-41
2021/01/07 05:36:20;;;;;;;5.53;5.03;;;8.40;58.20;;;;;;5051211;28;20466;-43
2021/01/07 05:38:45;;;;;;;11.30;4.67;;;8.40;58.40;;;;;;5050947;28;20825;-41
2021/01/07 05:41:14;;;;;;;6.27;5.07;;;8.40;58.30;;;;;;5046697;28;20463;-41
2021/01/07 05:43:40;;;;;;;4.80;3.90;;;8.40;58.40;;;;;;5049643;28;20193;-40
2021/01/07 05:46:10;;;;;;;6.60;5.00;;;8.40;58.50;;;;;;5050579;28;20435;-41
2021/01/07 05:48:36;;;;;;;4.90;4.20;;;8.40;58.60;;;;;;5045401;28;20903;-41
2021/01/07 05:51:04;;;;;;;4.57;4.13;;;8.40;58.60;;;;;;5050512;28;20465;-41
2021/01/07 05:53:32;;;;;;;4.17;3.80;;;8.40;58.70;;;;;;5051338;28;20668;-41
2021/01/07 05:55:59;;;;;;;4.33;3.93;;;8.30;58.40;;;;;;5051184;28;20949;-41
2021/01/07 05:58:24;;;;;;;5.10;4.10;;;8.30;58.50;;;;;;5050333;28;20522;-41
2021/01/07 06:00:55;;;;;;;6.57;4.60;;;8.40;58.60;;;;;;5050543;28;20494;-41
2021/01/07 06:03:24;;;;;;;6.37;4.43;;;8.40;58.40;;;;;;5050222;28;20287;-41
2021/01/07 06:05:51;;;;;;;5.53;4.20;;;8.40;58.30;;;;;;5051022;28;20427;-41
2021/01/07 06:08:17;;;;;;;5.00;4.20;;;8.40;58.10;;;;;;5047636;28;20449;-40
2021/01/07 06:10:47;;;;;;;7.63;6.50;;;8.40;58.10;;;;;;5050704;28;20426;-41
2021/01/07 06:13:13;;;;;;;12.13;7.17;;;8.50;58.10;;;;;;5049215;28;20270;-41
2021/01/07 06:15:40;;;;;;;8.50;6.17;;;8.50;58.30;;;;;;5049989;28;20440;-41
2021/01/07 06:18:06;;;;;;;10.30;6.47;;;8.80;60.20;;;;;;5050342;28;20482;-42
2021/01/07 06:20:33;;;;;;;7.60;6.00;;;9.10;60.70;;;;;;5050821;28;20439;-41
2021/01/07 06:22:59;;;;;;;5.47;4.97;;;9.40;59.50;;;;;;5048388;28;20915;-41
2021/01/07 06:25:25;;;;;;;8.20;4.93;;;9.50;57.60;;;;;;5050220;28;20574;-41
2021/01/07 06:27:52;;;;;;;5.90;5.03;;;9.60;57.80;;;;;;5049664;28;20526;-41
2021/01/07 06:30:18;;;;;;;9.27;5.83;;;9.80;57.60;;;;;;5050305;28;20541;-41
2021/01/07 06:32:45;;;;;;;7.50;5.03;;;10.00;56.10;;;;;;5047957;28;20446;-41
2021/01/07 06:35:16;;;;;;;6.30;5.37;;;10.20;55.30;;;;;;5048916;28;20197;-41
2021/01/07 06:37:50;;;;;;;5.80;5.10;;;10.30;54.50;;;;;;5047338;28;20487;-41
2021/01/07 06:40:17;;;;;;;5.37;4.87;;;10.40;54.10;;;;;;5049973;28;20479;-41
2021/01/07 06:42:48;;;;;;;7.13;4.90;;;10.40;53.90;;;;;;5048747;28;20439;-41
2021/01/07 06:45:14;;;;;;;5.90;4.70;;;10.50;53.90;;;;;;5041247;28;20450;-41
2021/01/07 06:47:42;;;;;;;5.80;5.07;;;10.60;53.40;;;;;;5048691;28;20438;-41
2021/01/07 06:50:09;;;;;;;6.37;5.40;;;10.60;52.90;;;;;;5049677;28;20446;-41
2021/01/07 06:52:53;;;;;;;5.17;4.63;;;10.70;53.00;;;;;;5049230;28;20427;-41
2021/01/07 06:55:20;;;;;;;5.57;5.00;;;10.70;52.80;;;;;;5048675;28;20926;-41
2021/01/07 06:57:54;;;;;;;5.07;4.67;;;10.80;52.80;;;;;;5049364;28;20483;-42
2021/01/07 07:00:22;;;;;;;7.20;5.83;;;10.80;52.70;;;;;;5050093;28;20449;-41
2021/01/07 07:03:03;;;;;;;7.10;5.93;;;10.90;52.30;;;;;;5049372;28;20423;-41
2021/01/07 07:05:34;;;;;;;8.93;5.70;;;10.80;51.90;;;;;;5047157;28;20797;-41
2021/01/07 07:08:13;;;;;;;6.87;5.67;;;10.90;52.00;;;;;;5049186;28;20775;-41
2021/01/07 07:10:39;;;;;;;7.50;5.67;;;10.90;51.90;;;;;;5049688;28;20431;-41
2021/01/07 07:13:15;;;;;;;7.63;6.27;;;10.90;51.70;;;;;;5048734;28;20449;-42
2021/01/07 07:15:41;;;;;;;7.10;6.40;;;10.90;51.60;;;;;;5040518;28;20279;-41
2021/01/07 07:18:07;;;;;;;7.60;6.10;;;10.90;51.60;;;;;;5049746;28;21029;-41
2021/01/07 07:20:39;;;;;;;7.33;6.20;;;11.00;51.60;;;;;;5050879;28;20249;-41
2021/01/07 07:23:22;;;;;;;7.07;6.30;;;11.00;51.50;;;;;;5050332;28;20576;-41
2021/01/07 07:25:50;;;;;;;7.47;5.80;;;10.90;51.50;;;;;;5050421;28;20435;-41
2021/01/07 07:28:22;;;;;;;7.00;6.03;;;10.80;50.70;;;;;;5049970;28;20411;-41
2021/01/07 07:30:48;;;;;;;7.90;6.33;;;10.70;51.10;;;;;;5048908;28;20811;-41
2021/01/07 07:33:33;;;;;;;7.53;6.70;;;10.80;51.50;;;;;;5050077;28;20419;-41
2021/01/07 07:35:59;;;;;;;8.70;7.00;;;10.80;51.60;;;;;;5044658;28;20192;-41
2021/01/07 07:38:34;;;;;;;7.80;7.00;;;10.80;51.80;;;;;;5049773;28;20986;-41
2021/01/07 07:41:08;;;;;;;7.57;6.77;;;10.80;51.60;;;;;;5046596;28;20282;-41
2021/01/07 07:43:35;;;;;;;9.67;8.67;;;10.80;51.30;;;;;;5049581;28;20931;-41
2021/01/07 07:46:02;;;;;;;10.40;7.63;;;10.70;51.30;;;;;;5050003;28;20477;-41
2021/01/07 07:48:30;;;;;;;10.27;7.00;;;10.70;51.30;;;;;;5046778;28;20767;-41
2021/01/07 07:51:09;;;;;;;9.23;7.50;;;10.70;51.40;;;;;;5050007;28;20423;-41
2021/01/07 07:53:37;;;;;;;8.77;6.97;;;10.70;51.50;;;;;;5049835;28;20458;-41
2021/01/07 07:56:04;;;;;;;8.20;6.87;;;10.70;51.40;;;;;;5049644;28;20427;-41
2021/01/07 07:58:30;;;;;;;11.37;10.23;;;10.80;51.50;;;;;;5047378;28;20435;-41
2021/01/07 08:00:57;;;;;;;11.67;9.03;;;10.80;51.50;;;;;;5049801;28;20477;-41
2021/01/07 08:03:32;;;;;;;8.13;6.83;;;10.80;51.30;;;;;;5043220;28;20189;-41
2021/01/07 08:06:00;;;;;;;9.20;8.20;;;10.80;51.30;;;;;;5053121;28;20446;-41
2021/01/07 08:08:27;;;;;;;10.17;8.00;;;11.00;51.60;;;;;;5052548;28;20427;-41
2021/01/07 08:10:54;;;;;;;7.90;7.10;;;11.00;51.20;;;;;;5053689;28;20482;-41
2021/01/07 08:13:24;;;;;;;8.87;7.50;;;11.00;50.80;;;;;;5053384;28;20431;-41
2021/01/07 08:15:59;;;;;;;8.77;7.53;;;11.00;50.80;;;;;;5053033;28;20785;-41
2021/01/07 08:18:26;;;;;;;7.73;6.70;;;11.00;50.70;;;;;;5052879;28;20517;-41
2021/01/07 08:20:54;;;;;;;8.30;6.30;;;11.00;50.90;;;;;;5053911;28;20427;-41
2021/01/07 08:23:22;;;;;;;8.40;7.17;;;11.10;50.80;;;;;;5053074;28;20431;-41
2021/01/07 08:25:50;;;;;;;7.63;6.90;;;11.10;50.50;;;;;;5042957;28;20463;-41
2021/01/07 08:28:51;;;;;;;9.10;7.43;;;11.10;50.40;;;;;;5053042;28;20830;-41
2021/01/07 08:31:23;;;;;;;11.20;8.27;;;11.00;50.50;;;;;;5048290;28;20942;-41
2021/01/07 08:33:50;;;;;;;12.60;8.30;;;11.00;50.40;;;;;;5051097;28;20419;-41
2021/01/07 08:36:19;;;;;;;9.73;7.50;;;11.10;50.50;;;;;;5051037;28;20901;-41
2021/01/07 08:38:52;;;;;;;11.40;7.93;;;11.10;50.50;;;;;;5051096;28;20485;-41
2021/01/07 08:41:30;;;;;;;10.53;8.40;;;11.10;50.40;;;;;;5051399;28;20520;-41
2021/01/07 08:43:57;;;;;;;9.60;8.07;;;11.00;50.60;;;;;;5049304;28;20427;-41
2021/01/07 08:46:41;;;;;;;12.90;8.87;;;11.00;50.70;;;;;;5052169;28;20775;-41
2021/01/07 08:49:09;;;;;;;10.03;8.30;;;11.00;50.80;;;;;;5051590;28;20454;-41
2021/01/07 08:51:42;;;;;;;10.57;8.23;;;11.00;50.80;;;;;;5052625;28;20446;-41
2021/01/07 08:54:14;;;;;;;11.50;9.57;;;11.00;51.00;;;;;;5046723;28;20443;-41
2021/01/07 08:56:44;;;;;;;12.30;9.03;;;10.90;51.10;;;;;;5050448;28;20578;-42
2021/01/07 08:59:22;;;;;;;11.03;9.40;;;10.80;51.30;;;;;;5050458;28;20443;-41
2021/01/07 09:01:48;;;;;;;9.50;7.80;;;10.80;51.30;;;;;;5051154;28;20452;-41
2021/01/07 09:04:27;;;;;;;11.93;9.27;;;10.70;51.30;;;;;;5049734;28;20419;-41
2021/01/07 09:07:13;;;;;;;12.73;9.80;;;10.80;51.50;;;;;;5052138;28;20427;-40
2021/01/07 09:09:43;;;;;;;11.50;8.87;;;10.80;51.50;;;;;;5041040;28;20466;-40
2021/01/07 09:12:12;;;;;;;13.30;8.73;;;10.80;51.60;;;;;;5050694;28;20922;-40
2021/01/07 09:14:48;;;;;;;13.83;9.67;;;10.90;51.80;;;;;;5040859;28;20439;-40
2021/01/07 09:17:18;;;;;;;13.27;8.50;;;10.80;51.80;;;;;;5051029;28;20585;-40
2021/01/07 09:19:44;;;;;;;11.57;9.20;;;10.70;51.90;;;;;;5050724;28;21281;-41
2021/01/07 09:22:16;;;;;;;11.30;9.07;;;10.60;52.30;;;;;;5048976;28;20878;-40
2021/01/07 09:24:42;;;;;;;13.63;8.53;;;10.50;52.60;;;;;;5049784;28;20427;-41
2021/01/07 09:27:14;;;;;;;8.67;7.07;;;10.60;52.60;;;;;;5048340;28;20503;-41
2021/01/07 09:29:40;;;;;;;7.80;6.43;;;10.50;52.50;;;;;;5049410;28;20262;-40
2021/01/07 09:32:07;;;;;;;9.33;8.17;;;10.50;52.60;;;;;;5048100;28;20454;-40
2021/01/07 09:34:33;;;;;;;10.60;8.03;;;10.50;52.50;;;;;;5043952;28;20926;-41
2021/01/07 09:37:17;;;;;;;11.20;9.23;;;10.50;52.30;;;;;;5038581;28;20521;-40
2021/01/07 09:39:43;;;;;;;10.47;8.50;;;10.60;52.60;;;;;;5048470;28;20868;-40
2021/01/07 09:42:10;;;;;;;10.57;8.33;;;10.50;52.60;;;;;;5048872;28;20862;-41
2021/01/07 09:44:36;;;;;;;11.77;8.67;;;10.30;52.10;;;;;;5065623;28;20442;-40
2021/01/07 09:47:03;;;;;;;10.43;8.47;;;10.10;52.40;;;;;;5041423;28;20436;-40
2021/01/07 09:49:29;;;;;;;12.30;9.17;;;10.00;53.00;;;;;;5046533;28;20860;-41
2021/01/07 09:51:56;;;;;;;10.83;9.03;;;10.00;53.10;;;;;;5048301;28;20432;-40
2021/01/07 09:54:24;;;;;;;10.00;8.50;;;10.00;53.40;;;;;;5050243;28;20497;-40
2021/01/07 09:56:54;;;;;;;9.97;8.97;;;10.00;53.30;;;;;;5063596;28;20520;-40
2021/01/07 09:59:21;;;;;;;12.67;8.70;;;10.00;53.30;;;;;;5057550;28;20815;-40
2021/01/07 10:01:50;;;;;;;11.93;9.53;;;10.00;53.30;;;;;;5049206;28;20427;-41
2021/01/07 10:04:16;;;;;;;10.33;7.93;;;10.00;53.10;;;;;;5053050;28;20435;-40
2021/01/07 10:06:42;;;;;;;12.17;9.43;;;10.00;53.30;;;;;;5050427;28;20443;-41
2021/01/07 10:09:07;;;;;;;11.37;9.50;;;10.10;53.30;;;;;;5060787;28;20263;-42
2021/01/07 10:11:33;;;;;;;12.30;7.80;;;10.10;53.00;;;;;;5049291;28;20196;-40
2021/01/07 10:13:58;;;;;;;11.87;9.23;;;10.00;52.90;;;;;;5049715;28;20195;-40
2021/01/07 10:16:24;;;;;;;11.03;8.73;;;9.90;53.50;;;;;;5050798;28;20204;-40
2021/01/07 10:18:50;;;;;;;11.67;8.83;;;9.80;53.60;;;;;;5053613;28;20201;-41
2021/01/07 10:21:21;;;;;;;13.00;8.93;;;9.80;54.10;;;;;;5049205;28;20243;-40
2021/01/07 10:23:48;;;;;;;9.97;7.37;;;9.80;54.30;;;;;;5048122;28;20246;-40
2021/01/07 10:26:19;;;;;;;11.40;9.20;;;10.00;53.40;;;;;;5051386;28;20431;-41
2021/01/07 10:28:48;;;;;;;9.83;7.50;;;10.00;52.70;;;;;;5056078;28;20782;-40
2021/01/07 10:31:18;;;;;;;10.60;7.97;;;9.80;53.30;;;;;;5057536;28;21021;-40
2021/01/07 10:33:46;;;;;;;11.30;7.87;;;9.70;53.50;;;;;;5047565;28;20435;-40
2021/01/07 10:36:16;;;;;;;9.67;7.30;;;9.70;54.40;;;;;;5046863;28;20570;-40
2021/01/07 10:38:45;;;;;;;9.33;7.17;;;9.80;53.70;;;;;;5056569;28;20945;-40
2021/01/07 10:41:13;;;;;;;9.50;7.90;;;9.80;53.60;;;;;;5049587;28;20475;-40
2021/01/07 10:43:39;;;;;;;11.67;8.90;;;9.80;53.20;;;;;;5048289;28;20497;-42
2021/01/07 10:46:05;;;;;;;11.43;8.70;;;9.80;53.90;;;;;;5051397;28;20856;-41
2021/01/07 10:48:35;;;;;;;12.07;9.30;;;9.90;53.60;;;;;;5049118;28;20435;-41
2021/01/07 10:51:02;;;;;;;8.23;7.30;;;9.80;53.20;;;;;;5048215;28;20184;-41
2021/01/07 10:53:47;;;;;;;10.23;8.60;;;9.80;53.40;;;;;;5048008;28;20547;-41
2021/01/07 10:56:31;;;;;;;15.00;11.37;;;9.70;53.30;;;;;;5056985;28;20440;-41
2021/01/07 10:59:38;;;;;;;10.00;8.80;;;9.90;53.50;;;;;;5049467;28;20518;-41
2021/01/07 11:02:37;;;;;;;22.20;20.10;;;10.00;52.80;;;;;;5025057;28;20461;-41
2021/01/07 11:05:13;;;;;;;8.93;7.73;;;10.10;52.60;;;;;;5048709;28;20962;-42
2021/01/07 11:07:56;;;;;;;12.77;8.83;;;10.20;51.80;;;;;;5047740;28;20434;-42
2021/01/07 11:10:23;;;;;;;9.50;7.20;;;10.40;51.60;;;;;;5051284;28;20891;-41
2021/01/07 11:13:02;;;;;;;7.50;6.70;;;10.30;50.90;;;;;;5047952;28;20476;-41
2021/01/07 11:15:29;;;;;;;7.97;7.07;;;10.30;51.70;;;;;;5046876;28;20767;-41
2021/01/07 11:18:15;;;;;;;7.90;6.20;;;10.40;51.40;;;;;;5048147;28;20582;-41
2021/01/07 11:20:48;;;;;;;6.17;5.50;;;10.30;50.40;;;;;;5046018;28;20435;-41
2021/01/07 11:23:14;;;;;;;7.47;5.63;;;10.20;49.70;;;;;;5048580;28;20944;-41
2021/01/07 11:25:39;;;;;;;8.43;5.63;;;9.80;50.90;;;;;;5047791;28;20430;-41
2021/01/07 11:28:05;;;;;;;6.10;5.00;;;9.80;51.30;;;;;;5048603;28;20438;-41
2021/01/07 11:30:31;;;;;;;7.30;5.70;;;9.90;51.20;;;;;;5045421;28;20242;-42
2021/01/07 11:33:01;;;;;;;7.87;6.10;;;10.10;49.80;;;;;;5034919;28;20669;-41
2021/01/07 11:35:26;;;;;;;5.60;4.50;;;10.10;48.40;;;;;;5048628;28;20531;-41
2021/01/07 11:38:00;;;;;;;6.97;5.43;;;10.10;48.10;;;;;;5046165;28;20581;-41
2021/01/07 11:40:37;;;;;;;6.97;5.60;;;10.10;47.90;;;;;;5050384;28;20281;-41
2021/01/07 11:43:24;;;;;;;6.27;4.80;;;10.00;48.90;;;;;;5042815;28;20444;-41
2021/01/07 11:45:55;;;;;;;5.80;5.00;;;9.90;49.30;;;;;;5048816;28;20443;-41
2021/01/07 11:48:23;;;;;;;10.60;5.77;;;9.90;49.00;;;;;;5052173;28;20427;-41
2021/01/07 11:50:57;;;;;;;7.50;6.00;;;10.00;48.90;;;;;;5053053;28;20419;-41
2021/01/07 11:53:26;;;;;;;7.50;6.37;;;9.90;49.00;;;;;;5052537;28;20426;-41
2021/01/07 11:55:52;;;;;;;7.57;5.23;;;10.00;47.80;;;;;;5053296;28;20456;-41
2021/01/07 11:58:18;;;;;;;7.03;5.83;;;10.00;48.20;;;;;;5053501;28;20556;-41
2021/01/07 12:00:44;;;;;;;6.47;4.67;;;10.00;48.00;;;;;;5053074;28;20431;-41
2021/01/07 12:03:14;;;;;;;6.73;5.47;;;10.10;47.70;;;;;;5054063;28;20196;-41
2021/01/07 12:05:40;;;;;;;6.10;4.73;;;9.60;48.20;;;;;;5054231;28;20477;-41
2021/01/07 12:08:24;;;;;;;5.50;4.93;;;9.60;48.70;;;;;;5052267;28;20427;-41
2021/01/07 12:10:53;;;;;;;5.30;4.80;;;9.80;49.10;;;;;;5049774;28;20197;-41
2021/01/07 12:13:34;;;;;;;6.67;5.17;;;9.90;49.10;;;;;;5053370;28;20976;-41
2021/01/07 12:16:00;;;;;;;7.40;5.33;;;9.70;48.90;;;;;;5052274;28;20930;-41
2021/01/07 12:18:27;;;;;;;12.17;5.60;;;9.70;48.30;;;;;;5057363;28;20440;-41
2021/01/07 12:20:53;;;;;;;6.37;4.50;;;9.80;48.00;;;;;;5050846;28;20530;-41
2021/01/07 12:23:19;;;;;;;5.93;4.63;;;9.80;47.80;;;;;;5054640;28;20964;-41
2021/01/07 12:25:47;;;;;;;4.70;3.70;;;9.50;47.50;;;;;;5052323;28;20557;-41
2021/01/07 12:28:18;;;;;;;5.67;4.03;;;9.50;47.60;;;;;;5051614;28;20518;-41
2021/01/07 12:30:46;;;;;;;6.30;4.90;;;9.70;47.90;;;;;;5050716;28;20435;-41
2021/01/07 12:34:17;;;;;;;7.93;5.00;;;9.70;48.10;;;;;;5049786;28;20810;-41
2021/01/07 12:37:12;;;;;;;6.03;4.57;;;9.50;47.80;;;;;;4989190;28;20559;-41
2021/01/07 12:39:49;;;;;;;6.63;5.13;;;9.50;49.00;;;;;;4986633;28;20453;-41
2021/01/07 12:42:22;;;;;;;6.67;5.47;;;9.60;49.20;;;;;;5042738;28;21069;-42
2021/01/07 12:44:48;;;;;;;6.07;5.47;;;9.60;49.20;;;;;;5054733;28;20443;-41
2021/01/07 12:47:15;;;;;;;5.27;4.30;;;9.70;49.50;;;;;;5051112;28;21155;-41
2021/01/07 12:49:47;;;;;;;6.67;4.30;;;9.70;48.70;;;;;;5053533;28;20435;-42
2021/01/07 12:52:12;;;;;;;7.40;5.73;;;9.60;49.00;;;;;;5045367;28;20527;-41
2021/01/07 12:54:39;;;;;;;6.60;5.30;;;9.60;49.40;;;;;;5049730;28;20529;-41
2021/01/07 12:57:16;;;;;;;7.77;5.80;;;9.70;49.90;;;;;;5049576;28;20734;-41